sensor_id;sensor_type;location;lat;lon;timestamp;P1;durP1;ratioP1;P2;durP2;ratioP2
53287;SDS011;39172;45.550;12.072;2023-05-07T00:03:45;4.25;;;3.83;;
53287;SDS011;39172;45.550;12.072;2023-05-07T00:09:46;4.22;;;3.83;;
53287;SDS011;39172;45.550;12.072;2023-05-07T00:15:47;4.93;;;4.47;;
53287;SDS011;39172;45.550;12.072;2023-05-07T00:21:48;4.22;;;3.83;;
53287;SDS011;39172;45.550;12.072;2023-05-07T00:27:49;3.10;;;2.70;;
53287;SDS011;39172;45.550;12.072;2023-05-07T00:33:49;4.22;;;3.83;;
53287;SDS011;39172;45.550;12.072;2023-05-07T00:39:50;5.10;;;4.60;;
53287;SDS011;39172;45.550;12.072;2023-05-07T00:45:51;4.90;;;4.50;;
53287;SDS011;39172;45.550;12.072;2023-05-07T00:51:52;4.75;;;4.30;;
53287;SDS011;39172;45.550;12.072;2023-05-07T00:57:53;4.43;;;4.03;;
53287;SDS011;39172;45.550;12.072;2023-05-07T01:03:54;5.32;;;4.82;;
53287;SDS011;39172;45.550;12.072;2023-05-07T01:09:56;5.15;;;4.65;;
53287;SDS011;39172;45.550;12.072;2023-05-07T01:15:57;3.53;;;3.22;;
53287;SDS011;39172;45.550;12.072;2023-05-07T01:22:03;4.30;;;3.90;;
53287;SDS011;39172;45.550;12.072;2023-05-07T01:28:06;3.90;;;3.60;;
53287;SDS011;39172;45.550;12.072;2023-05-07T01:34:10;3.03;;;2.72;;
53287;SDS011;39172;45.550;12.072;2023-05-07T01:40:12;2.53;;;2.33;;
53287;SDS011;39172;45.550;12.072;2023-05-07T01:46:13;2.30;;;2.10;;
53287;SDS011;39172;45.550;12.072;2023-05-07T01:52:15;2.22;;;2.03;;
53287;SDS011;39172;45.550;12.072;2023-05-07T01:58:16;2.47;;;2.25;;
53287;SDS011;39172;45.550;12.072;2023-05-07T02:04:17;4.20;;;3.80;;
53287;SDS011;39172;45.550;12.072;2023-05-07T02:10:19;2.42;;;2.22;;
53287;SDS011;39172;45.550;12.072;2023-05-07T02:16:20;2.20;;;2.00;;
53287;SDS011;39172;45.550;12.072;2023-05-07T02:22:22;3.30;;;3.00;;
53287;SDS011;39172;45.550;12.072;2023-05-07T02:28:23;4.13;;;3.72;;
53287;SDS011;39172;45.550;12.072;2023-05-07T02:34:28;2.53;;;2.33;;
53287;SDS011;39172;45.550;12.072;2023-05-07T02:40:29;2.28;;;2.08;;
53287;SDS011;39172;45.550;12.072;2023-05-07T02:46:34;2.33;;;2.13;;
53287;SDS011;39172;45.550;12.072;2023-05-07T02:52:40;2.88;;;2.65;;
53287;SDS011;39172;45.550;12.072;2023-05-07T02:58:41;2.30;;;2.03;;
53287;SDS011;39172;45.550;12.072;2023-05-07T03:04:46;2.63;;;2.30;;
53287;SDS011;39172;45.550;12.072;2023-05-07T03:10:47;2.50;;;2.30;;
53287;SDS011;39172;45.550;12.072;2023-05-07T03:16:48;3.22;;;2.92;;
53287;SDS011;39172;45.550;12.072;2023-05-07T03:22:49;3.78;;;3.42;;
53287;SDS011;39172;45.550;12.072;2023-05-07T03:28:50;3.50;;;3.20;;
53287;SDS011;39172;45.550;12.072;2023-05-07T03:34:52;4.40;;;4.00;;
53287;SDS011;39172;45.550;12.072;2023-05-07T03:40:53;4.90;;;4.43;;
53287;SDS011;39172;45.550;12.072;2023-05-07T03:46:54;4.40;;;4.00;;
53287;SDS011;39172;45.550;12.072;2023-05-07T03:52:56;3.70;;;3.40;;
53287;SDS011;39172;45.550;12.072;2023-05-07T03:58:58;4.20;;;3.80;;
53287;SDS011;39172;45.550;12.072;2023-05-07T04:04:59;3.58;;;3.28;;
53287;SDS011;39172;45.550;12.072;2023-05-07T04:11:00;5.40;;;4.45;;
53287;SDS011;39172;45.550;12.072;2023-05-07T04:17:04;4.90;;;4.40;;
53287;SDS011;39172;45.550;12.072;2023-05-07T04:23:07;4.60;;;4.20;;
53287;SDS011;39172;45.550;12.072;2023-05-07T04:29:08;6.18;;;5.18;;
53287;SDS011;39172;45.550;12.072;2023-05-07T04:35:09;5.75;;;5.15;;
53287;SDS011;39172;45.550;12.072;2023-05-07T04:41:12;7.35;;;6.35;;
53287;SDS011;39172;45.550;12.072;2023-05-07T04:47:15;5.13;;;4.63;;
53287;SDS011;39172;45.550;12.072;2023-05-07T04:53:16;6.50;;;5.78;;
53287;SDS011;39172;45.550;12.072;2023-05-07T04:59:17;8.27;;;6.78;;
53287;SDS011;39172;45.550;12.072;2023-05-07T05:05:18;7.15;;;5.90;;
53287;SDS011;39172;45.550;12.072;2023-05-07T05:11:21;6.10;;;5.07;;
53287;SDS011;39172;45.550;12.072;2023-05-07T05:17:22;6.05;;;5.45;;
53287;SDS011;39172;45.550;12.072;2023-05-07T05:23:23;5.25;;;4.75;;
53287;SDS011;39172;45.550;12.072;2023-05-07T05:29:25;5.18;;;4.68;;
53287;SDS011;39172;45.550;12.072;2023-05-07T05:35:25;6.82;;;6.13;;
53287;SDS011;39172;45.550;12.072;2023-05-07T05:41:26;6.88;;;6.18;;
53287;SDS011;39172;45.550;12.072;2023-05-07T05:47:28;6.22;;;5.60;;
53287;SDS011;39172;45.550;12.072;2023-05-07T05:53:30;6.53;;;5.93;;
53287;SDS011;39172;45.550;12.072;2023-05-07T05:59:32;5.60;;;4.97;;
53287;SDS011;39172;45.550;12.072;2023-05-07T06:05:33;5.18;;;4.68;;
53287;SDS011;39172;45.550;12.072;2023-05-07T06:11:33;5.50;;;5.00;;
53287;SDS011;39172;45.550;12.072;2023-05-07T06:17:35;4.95;;;4.45;;
53287;SDS011;39172;45.550;12.072;2023-05-07T06:23:36;5.35;;;4.85;;
53287;SDS011;39172;45.550;12.072;2023-05-07T06:29:39;5.20;;;4.53;;
53287;SDS011;39172;45.550;12.072;2023-05-07T06:35:47;5.32;;;4.78;;
53287;SDS011;39172;45.550;12.072;2023-05-07T06:41:48;4.57;;;4.18;;
53287;SDS011;39172;45.550;12.072;2023-05-07T06:47:59;5.20;;;4.70;;
53287;SDS011;39172;45.550;12.072;2023-05-07T06:54:02;5.30;;;4.57;;
53287;SDS011;39172;45.550;12.072;2023-05-07T07:00:05;5.03;;;4.53;;
53287;SDS011;39172;45.550;12.072;2023-05-07T07:06:17;5.32;;;4.68;;
53287;SDS011;39172;45.550;12.072;2023-05-07T07:12:18;5.75;;;5.18;;
53287;SDS011;39172;45.550;12.072;2023-05-07T07:18:19;5.53;;;4.95;;
53287;SDS011;39172;45.550;12.072;2023-05-07T07:24:23;4.40;;;4.00;;
53287;SDS011;39172;45.550;12.072;2023-05-07T07:30:29;4.63;;;4.22;;
53287;SDS011;39172;45.550;12.072;2023-05-07T07:36:29;7.43;;;6.60;;
53287;SDS011;39172;45.550;12.072;2023-05-07T07:42:31;4.32;;;3.80;;
53287;SDS011;39172;45.550;12.072;2023-05-07T07:48:33;4.78;;;4.25;;
53287;SDS011;39172;45.550;12.072;2023-05-07T07:54:34;4.88;;;4.32;;
53287;SDS011;39172;45.550;12.072;2023-05-07T08:00:35;4.32;;;3.92;;
53287;SDS011;39172;45.550;12.072;2023-05-07T08:06:36;5.70;;;4.30;;
53287;SDS011;39172;45.550;12.072;2023-05-07T08:12:38;3.70;;;3.30;;
53287;SDS011;39172;45.550;12.072;2023-05-07T08:18:39;4.50;;;4.10;;
53287;SDS011;39172;45.550;12.072;2023-05-07T08:24:40;4.35;;;3.95;;
53287;SDS011;39172;45.550;12.072;2023-05-07T08:30:41;4.40;;;4.00;;
53287;SDS011;39172;45.550;12.072;2023-05-07T08:36:42;3.85;;;3.55;;
53287;SDS011;39172;45.550;12.072;2023-05-07T08:42:45;4.70;;;4.30;;
53287;SDS011;39172;45.550;12.072;2023-05-07T08:48:50;4.13;;;3.55;;
53287;SDS011;39172;45.550;12.072;2023-05-07T08:54:51;3.70;;;3.40;;
53287;SDS011;39172;45.550;12.072;2023-05-07T09:00:53;4.05;;;3.65;;
53287;SDS011;39172;45.550;12.072;2023-05-07T09:06:55;3.30;;;3.00;;
53287;SDS011;39172;45.550;12.072;2023-05-07T09:12:57;2.78;;;2.58;;
53287;SDS011;39172;45.550;12.072;2023-05-07T09:18:59;2.65;;;2.45;;
53287;SDS011;39172;45.550;12.072;2023-05-07T09:25:01;3.63;;;2.67;;
53287;SDS011;39172;45.550;12.072;2023-05-07T09:31:02;2.65;;;2.45;;
53287;SDS011;39172;45.550;12.072;2023-05-07T09:37:04;2.83;;;2.53;;
53287;SDS011;39172;45.550;12.072;2023-05-07T09:43:09;3.00;;;2.58;;
53287;SDS011;39172;45.550;12.072;2023-05-07T09:49:11;4.75;;;3.92;;
53287;SDS011;39172;45.550;12.072;2023-05-07T09:55:15;4.63;;;4.00;;
53287;SDS011;39172;45.550;12.072;2023-05-07T10:01:17;5.18;;;3.60;;
53287;SDS011;39172;45.550;12.072;2023-05-07T10:07:20;3.80;;;3.40;;
53287;SDS011;39172;45.550;12.072;2023-05-07T10:13:22;3.35;;;3.05;;
53287;SDS011;39172;45.550;12.072;2023-05-07T10:19:27;3.50;;;3.20;;
53287;SDS011;39172;45.550;12.072;2023-05-07T10:25:31;3.10;;;2.80;;
53287;SDS011;39172;45.550;12.072;2023-05-07T10:31:59;3.60;;;3.30;;
53287;SDS011;39172;45.550;12.072;2023-05-07T10:38:00;4.00;;;3.20;;
53287;SDS011;39172;45.550;12.072;2023-05-07T10:44:04;4.40;;;2.95;;
53287;SDS011;39172;45.550;12.072;2023-05-07T11:02:20;3.15;;;2.85;;
53287;SDS011;39172;45.550;12.072;2023-05-07T11:08:25;3.15;;;2.85;;
53287;SDS011;39172;45.550;12.072;2023-05-07T11:20:55;4.22;;;3.83;;
53287;SDS011;39172;45.550;12.072;2023-05-07T11:27:06;4.65;;;4.07;;
53287;SDS011;39172;45.550;12.072;2023-05-07T11:33:08;4.68;;;4.10;;
53287;SDS011;39172;45.550;12.072;2023-05-07T11:39:28;5.57;;;4.93;;
53287;SDS011;39172;45.550;12.072;2023-05-07T11:45:29;4.40;;;4.00;;
53287;SDS011;39172;45.550;12.072;2023-05-07T11:51:30;6.70;;;5.88;;
53287;SDS011;39172;45.550;12.072;2023-05-07T11:57:32;5.13;;;4.63;;
53287;SDS011;39172;45.550;12.072;2023-05-07T12:03:33;6.80;;;5.57;;
53287;SDS011;39172;45.550;12.072;2023-05-07T12:09:34;6.20;;;4.38;;
53287;SDS011;39172;45.550;12.072;2023-05-07T12:15:35;5.20;;;4.70;;
53287;SDS011;39172;45.550;12.072;2023-05-07T12:21:36;5.20;;;4.70;;
53287;SDS011;39172;45.550;12.072;2023-05-07T12:27:37;4.85;;;4.43;;
53287;SDS011;39172;45.550;12.072;2023-05-07T12:33:38;6.38;;;5.10;;
53287;SDS011;39172;45.550;12.072;2023-05-07T12:39:44;7.50;;;5.95;;
53287;SDS011;39172;45.550;12.072;2023-05-07T12:45:48;5.50;;;5.00;;
53287;SDS011;39172;45.550;12.072;2023-05-07T12:51:49;5.68;;;5.18;;
53287;SDS011;39172;45.550;12.072;2023-05-07T12:57:50;5.45;;;4.95;;
53287;SDS011;39172;45.550;12.072;2023-05-07T13:03:52;8.50;;;7.05;;
53287;SDS011;39172;45.550;12.072;2023-05-07T13:09:53;6.00;;;5.40;;
53287;SDS011;39172;45.550;12.072;2023-05-07T13:15:54;5.75;;;5.20;;
53287;SDS011;39172;45.550;12.072;2023-05-07T13:21:54;5.22;;;4.72;;
53287;SDS011;39172;45.550;12.072;2023-05-07T13:27:56;4.32;;;3.92;;
53287;SDS011;39172;45.550;12.072;2023-05-07T13:33:57;4.47;;;4.07;;
53287;SDS011;39172;45.550;12.072;2023-05-07T13:39:58;5.10;;;4.60;;
53287;SDS011;39172;45.550;12.072;2023-05-07T13:45:59;4.72;;;4.32;;
53287;SDS011;39172;45.550;12.072;2023-05-07T13:52:00;4.47;;;4.07;;
53287;SDS011;39172;45.550;12.072;2023-05-07T13:58:01;5.07;;;4.68;;
53287;SDS011;39172;45.550;12.072;2023-05-07T14:04:03;5.50;;;5.00;;
53287;SDS011;39172;45.550;12.072;2023-05-07T14:10:04;5.00;;;4.50;;
53287;SDS011;39172;45.550;12.072;2023-05-07T14:16:05;4.60;;;4.20;;
53287;SDS011;39172;45.550;12.072;2023-05-07T14:22:06;4.03;;;3.63;;
53287;SDS011;39172;45.550;12.072;2023-05-07T14:28:07;3.63;;;3.33;;
53287;SDS011;39172;45.550;12.072;2023-05-07T14:34:08;3.95;;;3.65;;
53287;SDS011;39172;45.550;12.072;2023-05-07T14:40:09;3.13;;;2.83;;
53287;SDS011;39172;45.550;12.072;2023-05-07T14:46:10;3.47;;;3.17;;
53287;SDS011;39172;45.550;12.072;2023-05-07T14:52:10;3.38;;;3.08;;
53287;SDS011;39172;45.550;12.072;2023-05-07T14:58:11;2.55;;;2.35;;
53287;SDS011;39172;45.550;12.072;2023-05-07T15:04:12;2.80;;;2.60;;
53287;SDS011;39172;45.550;12.072;2023-05-07T15:10:13;3.55;;;2.92;;
53287;SDS011;39172;45.550;12.072;2023-05-07T15:16:14;3.05;;;2.60;;
53287;SDS011;39172;45.550;12.072;2023-05-07T15:22:15;2.90;;;2.40;;
53287;SDS011;39172;45.550;12.072;2023-05-07T15:28:16;3.17;;;2.70;;
53287;SDS011;39172;45.550;12.072;2023-05-07T15:34:17;2.53;;;2.33;;
53287;SDS011;39172;45.550;12.072;2023-05-07T15:40:18;2.47;;;2.28;;
53287;SDS011;39172;45.550;12.072;2023-05-07T15:46:19;3.08;;;2.70;;
53287;SDS011;39172;45.550;12.072;2023-05-07T15:52:20;2.75;;;2.55;;
53287;SDS011;39172;45.550;12.072;2023-05-07T15:58:21;2.40;;;2.22;;
53287;SDS011;39172;45.550;12.072;2023-05-07T16:04:22;3.15;;;2.65;;
53287;SDS011;39172;45.550;12.072;2023-05-07T16:10:23;2.63;;;2.42;;
53287;SDS011;39172;45.550;12.072;2023-05-07T16:16:24;2.60;;;2.38;;
53287;SDS011;39172;45.550;12.072;2023-05-07T16:22:29;2.80;;;2.42;;
53287;SDS011;39172;45.550;12.072;2023-05-07T16:28:31;3.20;;;2.33;;
53287;SDS011;39172;45.550;12.072;2023-05-07T16:34:31;2.75;;;2.25;;
53287;SDS011;39172;45.550;12.072;2023-05-07T16:40:32;2.72;;;2.53;;
53287;SDS011;39172;45.550;12.072;2023-05-07T16:46:35;3.13;;;2.80;;
53287;SDS011;39172;45.550;12.072;2023-05-07T16:52:36;2.88;;;2.40;;
53287;SDS011;39172;45.550;12.072;2023-05-07T16:58:37;2.45;;;2.25;;
53287;SDS011;39172;45.550;12.072;2023-05-07T17:04:38;2.28;;;2.08;;
53287;SDS011;39172;45.550;12.072;2023-05-07T17:10:39;2.40;;;2.20;;
53287;SDS011;39172;45.550;12.072;2023-05-07T17:16:40;2.53;;;2.33;;
53287;SDS011;39172;45.550;12.072;2023-05-07T17:22:41;2.60;;;2.40;;
53287;SDS011;39172;45.550;12.072;2023-05-07T17:28:41;2.47;;;2.28;;
53287;SDS011;39172;45.550;12.072;2023-05-07T17:34:42;2.65;;;2.45;;
53287;SDS011;39172;45.550;12.072;2023-05-07T17:40:43;2.40;;;2.20;;
53287;SDS011;39172;45.550;12.072;2023-05-07T17:46:44;2.83;;;2.38;;
53287;SDS011;39172;45.550;12.072;2023-05-07T17:52:45;3.25;;;2.92;;
53287;SDS011;39172;45.550;12.072;2023-05-07T17:58:46;3.05;;;2.50;;
53287;SDS011;39172;45.550;12.072;2023-05-07T18:04:47;3.20;;;2.90;;
53287;SDS011;39172;45.550;12.072;2023-05-07T18:10:48;2.88;;;2.58;;
53287;SDS011;39172;45.550;12.072;2023-05-07T18:16:49;2.88;;;2.60;;
53287;SDS011;39172;45.550;12.072;2023-05-07T18:22:49;2.88;;;2.67;;
53287;SDS011;39172;45.550;12.072;2023-05-07T18:28:51;3.55;;;2.50;;
53287;SDS011;39172;45.550;12.072;2023-05-07T18:34:51;3.30;;;3.00;;
53287;SDS011;39172;45.550;12.072;2023-05-07T18:40:59;3.33;;;2.90;;
53287;SDS011;39172;45.550;12.072;2023-05-07T18:47:00;2.90;;;2.70;;
53287;SDS011;39172;45.550;12.072;2023-05-07T18:53:00;2.90;;;2.70;;
53287;SDS011;39172;45.550;12.072;2023-05-07T18:59:01;3.33;;;3.03;;
53287;SDS011;39172;45.550;12.072;2023-05-07T19:05:02;3.80;;;3.50;;
53287;SDS011;39172;45.550;12.072;2023-05-07T19:11:03;3.33;;;3.03;;
53287;SDS011;39172;45.550;12.072;2023-05-07T19:17:04;2.70;;;2.50;;
53287;SDS011;39172;45.550;12.072;2023-05-07T19:23:05;5.22;;;3.70;;
53287;SDS011;39172;45.550;12.072;2023-05-07T19:29:08;4.72;;;3.70;;
53287;SDS011;39172;45.550;12.072;2023-05-07T19:35:09;3.80;;;3.50;;
53287;SDS011;39172;45.550;12.072;2023-05-07T19:41:10;3.90;;;3.47;;
53287;SDS011;39172;45.550;12.072;2023-05-07T19:47:11;3.85;;;3.55;;
53287;SDS011;39172;45.550;12.072;2023-05-07T19:53:12;3.80;;;3.50;;
53287;SDS011;39172;45.550;12.072;2023-05-07T19:59:13;3.50;;;3.20;;
53287;SDS011;39172;45.550;12.072;2023-05-07T20:05:14;3.15;;;2.85;;
53287;SDS011;39172;45.550;12.072;2023-05-07T20:11:15;3.42;;;3.13;;
53287;SDS011;39172;45.550;12.072;2023-05-07T20:17:19;3.40;;;3.10;;
53287;SDS011;39172;45.550;12.072;2023-05-07T20:23:20;3.25;;;2.97;;
53287;SDS011;39172;45.550;12.072;2023-05-07T20:29:21;5.00;;;4.50;;
53287;SDS011;39172;45.550;12.072;2023-05-07T20:35:22;3.42;;;3.13;;
53287;SDS011;39172;45.550;12.072;2023-05-07T20:41:23;3.30;;;3.00;;
53287;SDS011;39172;45.550;12.072;2023-05-07T20:47:26;4.10;;;3.70;;
53287;SDS011;39172;45.550;12.072;2023-05-07T20:53:27;4.35;;;3.80;;
53287;SDS011;39172;45.550;12.072;2023-05-07T20:59:29;5.32;;;4.75;;
53287;SDS011;39172;45.550;12.072;2023-05-07T21:05:30;5.28;;;4.78;;
53287;SDS011;39172;45.550;12.072;2023-05-07T21:11:32;5.47;;;4.95;;
53287;SDS011;39172;45.550;12.072;2023-05-07T21:17:32;4.50;;;4.10;;
53287;SDS011;39172;45.550;12.072;2023-05-07T21:23:35;3.58;;;3.28;;
53287;SDS011;39172;45.550;12.072;2023-05-07T21:29:36;3.83;;;3.53;;
53287;SDS011;39172;45.550;12.072;2023-05-07T21:35:36;4.22;;;3.83;;
53287;SDS011;39172;45.550;12.072;2023-05-07T21:41:37;4.72;;;4.32;;
53287;SDS011;39172;45.550;12.072;2023-05-07T21:47:38;4.50;;;4.10;;
53287;SDS011;39172;45.550;12.072;2023-05-07T21:53:39;3.08;;;2.78;;
53287;SDS011;39172;45.550;12.072;2023-05-07T21:59:40;4.55;;;4.00;;
53287;SDS011;39172;45.550;12.072;2023-05-07T22:05:41;3.05;;;2.75;;
53287;SDS011;39172;45.550;12.072;2023-05-07T22:11:42;3.00;;;2.80;;
53287;SDS011;39172;45.550;12.072;2023-05-07T22:17:43;3.20;;;2.90;;
53287;SDS011;39172;45.550;12.072;2023-05-07T22:23:43;5.18;;;4.68;;
53287;SDS011;39172;45.550;12.072;2023-05-07T22:29:44;4.95;;;4.55;;
53287;SDS011;39172;45.550;12.072;2023-05-07T22:35:45;5.22;;;4.72;;
53287;SDS011;39172;45.550;12.072;2023-05-07T22:41:46;7.38;;;6.68;;
53287;SDS011;39172;45.550;12.072;2023-05-07T22:47:47;7.85;;;5.95;;
53287;SDS011;39172;45.550;12.072;2023-05-07T22:53:48;5.53;;;5.00;;
53287;SDS011;39172;45.550;12.072;2023-05-07T22:59:55;6.07;;;5.47;;
53287;SDS011;39172;45.550;12.072;2023-05-07T23:05:56;5.50;;;5.00;;
53287;SDS011;39172;45.550;12.072;2023-05-07T23:11:57;5.57;;;5.07;;
53287;SDS011;39172;45.550;12.072;2023-05-07T23:17:58;7.88;;;7.07;;
53287;SDS011;39172;45.550;12.072;2023-05-07T23:23:59;7.65;;;6.55;;
53287;SDS011;39172;45.550;12.072;2023-05-07T23:30:00;9.05;;;7.30;;
53287;SDS011;39172;45.550;12.072;2023-05-07T23:36:02;8.13;;;7.30;;
53287;SDS011;39172;45.550;12.072;2023-05-07T23:42:03;8.32;;;7.03;;
53287;SDS011;39172;45.550;12.072;2023-05-07T23:48:04;7.90;;;7.10;;
53287;SDS011;39172;45.550;12.072;2023-05-07T23:54:05;8.50;;;7.65;;
